createdAt,value
2022-09-06T00:00:21.838Z,70.94
2022-09-06T00:02:45.142Z,70.93
2022-09-06T00:05:09.664Z,71.43
2022-09-06T00:07:33.020Z,71.39
2022-09-06T00:09:56.675Z,71.06
2022-09-06T00:12:19.252Z,71.58
2022-09-06T00:14:42.287Z,72.03
2022-09-06T00:17:04.925Z,72.00
2022-09-06T00:19:27.921Z,72.40
2022-09-06T00:21:50.519Z,71.79
2022-09-06T00:24:13.140Z,71.76
2022-09-06T00:26:36.109Z,71.47
2022-09-06T00:28:58.723Z,70.63
2022-09-06T00:31:24.349Z,70.85
2022-09-06T00:33:47.391Z,70.63
2022-09-06T00:36:11.286Z,70.93
2022-09-06T00:38:34.165Z,71.23
2022-09-06T00:40:57.393Z,71.08
2022-09-06T00:43:20.081Z,71.30
2022-09-06T00:45:42.764Z,71.25
2022-09-06T00:48:06.082Z,71.54
2022-09-06T00:50:29.427Z,72.19
2022-09-06T00:52:53.224Z,72.60
2022-09-06T00:55:16.441Z,72.97
2022-09-06T00:57:39.492Z,73.64
2022-09-06T01:00:05.615Z,73.83
2022-09-06T01:02:28.577Z,74.12
2022-09-06T01:04:52.210Z,74.32
2022-09-06T01:07:39.525Z,74.17
2022-09-06T01:10:20.913Z,74.72
2022-09-06T01:13:28.020Z,74.41
2022-09-06T01:16:05.384Z,72.73
2022-09-06T01:18:53.840Z,73.50
2022-09-06T01:21:34.659Z,73.05
2022-09-06T01:24:43.034Z,72.61
2022-09-06T01:27:08.361Z,72.76
2022-09-06T01:29:36.701Z,72.92
2022-09-06T01:32:09.251Z,73.15
2022-09-06T01:34:37.932Z,73.24
2022-09-06T01:37:10.827Z,74.31
2022-09-06T01:39:35.589Z,74.93
2022-09-06T01:42:00.968Z,76.05
2022-09-06T01:44:27.540Z,76.16
2022-09-06T01:46:58.033Z,75.75
2022-09-06T01:50:00.418Z,75.13
2022-09-06T01:52:38.244Z,75.20
2022-09-06T01:55:32.471Z,74.98
2022-09-06T01:58:19.459Z,74.97
2022-09-06T02:00:55.456Z,74.90
2022-09-06T02:03:39.663Z,74.81
2022-09-06T02:06:14.784Z,74.18
2022-09-06T02:08:42.403Z,74.34
2022-09-06T02:11:07.209Z,73.98
2022-09-06T02:13:38.748Z,73.53
2022-09-06T02:16:06.555Z,73.54
2022-09-06T02:18:34.529Z,72.64
2022-09-06T02:20:58.790Z,72.75
2022-09-06T02:23:25.014Z,72.46
2022-09-06T02:25:53.587Z,72.46
2022-09-06T02:28:16.736Z,72.41
2022-09-06T02:30:44.021Z,72.03
2022-09-06T02:33:21.562Z,71.99
2022-09-06T02:35:47.594Z,71.79
2022-09-06T02:38:10.545Z,71.83
2022-09-06T02:40:33.343Z,72.11
2022-09-06T02:42:55.908Z,72.53
2022-09-06T02:45:18.516Z,72.33
2022-09-06T02:47:41.103Z,72.67
2022-09-06T02:50:04.123Z,72.82
2022-09-06T02:52:27.428Z,72.59
2022-09-06T02:54:50.089Z,72.86
2022-09-06T02:57:12.845Z,72.92
2022-09-06T02:59:36.160Z,72.87
2022-09-06T03:01:58.802Z,72.87
2022-09-06T03:04:21.556Z,72.89
2022-09-06T03:06:44.161Z,72.72
2022-09-06T03:09:06.720Z,73.04
2022-09-06T03:11:29.448Z,72.93
2022-09-06T03:13:52.715Z,73.07
2022-09-06T03:16:15.303Z,73.22
2022-09-06T03:18:38.003Z,73.16
2022-09-06T03:21:00.996Z,73.07
2022-09-06T03:23:26.271Z,72.67
2022-09-06T03:25:48.890Z,72.13
2022-09-06T03:28:12.903Z,71.85
2022-09-06T03:30:35.585Z,71.99
2022-09-06T03:33:02.821Z,72.05
2022-09-06T03:35:26.469Z,72.20
2022-09-06T03:37:49.174Z,72.41
2022-09-06T03:40:12.405Z,72.36
2022-09-06T03:42:35.144Z,72.67
2022-09-06T03:44:57.684Z,72.63
2022-09-06T03:47:20.881Z,72.76
2022-09-06T03:49:43.543Z,72.78
2022-09-06T03:52:06.476Z,72.47
2022-09-06T03:54:29.230Z,71.98
2022-09-06T03:56:51.803Z,72.52
2022-09-06T03:59:14.451Z,72.17
2022-09-06T04:01:37.166Z,72.06
2022-09-06T04:04:01.317Z,72.05
2022-09-06T04:06:24.004Z,71.67
2022-09-06T04:08:46.673Z,71.45
2022-09-06T04:11:09.625Z,71.22
2022-09-06T04:13:33.527Z,71.13
2022-09-06T04:15:56.604Z,71.49
2022-09-06T04:18:20.377Z,70.88
2022-09-06T04:20:45.099Z,71.24
2022-09-06T04:23:08.516Z,71.03
2022-09-06T04:25:31.450Z,70.98
2022-09-06T04:27:53.967Z,71.14
2022-09-06T04:30:16.793Z,70.82
2022-09-06T04:32:39.290Z,70.85
2022-09-06T04:35:01.936Z,70.61
2022-09-06T04:37:24.791Z,70.20
2022-09-06T04:39:47.744Z,70.61
2022-09-06T04:42:10.487Z,70.12
2022-09-06T04:44:33.059Z,70.11
2022-09-06T04:47:09.495Z,69.83
2022-09-06T04:49:34.490Z,69.70
2022-09-06T04:51:57.123Z,69.13
2022-09-06T04:54:19.709Z,68.99
2022-09-06T04:56:42.303Z,68.85
2022-09-06T04:59:04.944Z,68.06
2022-09-06T05:01:27.688Z,68.24
2022-09-06T05:03:52.973Z,68.57
2022-09-06T05:06:23.219Z,68.50
2022-09-06T05:08:45.805Z,67.55
2022-09-06T05:11:09.160Z,67.31
2022-09-06T05:13:31.800Z,67.56
2022-09-06T05:15:54.435Z,67.09
2022-09-06T05:18:17.072Z,66.50
2022-09-06T05:20:40.607Z,66.30
2022-09-06T05:23:03.295Z,65.40
2022-09-06T05:25:25.983Z,65.09
2022-09-06T05:27:49.549Z,63.85
2022-09-06T05:30:12.946Z,62.34
2022-09-06T05:32:35.816Z,61.19
2022-09-06T05:34:58.467Z,61.86
2022-09-06T05:37:23.218Z,60.11
2022-09-06T05:39:46.100Z,59.31
2022-09-06T05:42:08.891Z,58.92
2022-09-06T05:44:31.596Z,59.52
2022-09-06T05:46:54.699Z,59.60
2022-09-06T05:49:19.994Z,57.93
2022-09-06T05:51:42.908Z,55.99
2022-09-06T05:54:06.084Z,52.22
2022-09-06T05:56:28.766Z,50.82
2022-09-06T05:58:53.034Z,52.23
2022-09-06T06:01:28.516Z,53.65
2022-09-06T06:03:59.418Z,56.35
2022-09-06T06:06:22.728Z,56.91
2022-09-06T06:08:45.607Z,58.45
2022-09-06T06:11:08.314Z,59.18
2022-09-06T06:13:34.996Z,59.35
2022-09-06T06:15:58.006Z,59.83
2022-09-06T06:18:20.623Z,60.07
2022-09-06T06:20:43.444Z,59.56
2022-09-06T06:23:06.132Z,59.72
2022-09-06T06:25:28.839Z,59.79
2022-09-06T06:27:53.150Z,60.04
2022-09-06T06:30:18.419Z,58.54
2022-09-06T06:32:41.351Z,59.71
2022-09-06T06:35:04.345Z,59.76
2022-09-06T06:37:27.079Z,58.56
2022-09-06T06:39:49.862Z,58.83
2022-09-06T06:42:12.527Z,59.63
2022-09-06T06:44:46.855Z,59.40
2022-09-06T06:47:09.504Z,59.88
2022-09-06T06:49:32.625Z,59.72
2022-09-06T06:51:55.249Z,58.33
2022-09-06T06:54:17.960Z,57.13
2022-09-06T06:56:45.725Z,58.17
2022-09-06T06:59:10.651Z,57.88
2022-09-06T07:01:37.100Z,56.21
2022-09-06T07:03:59.908Z,57.30
2022-09-06T07:09:06.169Z,55.99
2022-09-06T07:11:28.710Z,57.14
2022-09-06T07:13:51.668Z,56.31
2022-09-06T07:16:23.866Z,57.31
2022-09-06T07:18:46.888Z,56.91
2022-09-06T07:26:31.189Z,56.34
2022-09-06T07:28:59.939Z,57.63
2022-09-06T07:34:05.910Z,55.93
2022-09-06T07:36:28.586Z,55.56
2022-09-06T07:38:51.699Z,54.45
2022-09-06T07:41:14.263Z,53.36
2022-09-06T07:43:37.581Z,53.54
2022-09-06T07:46:05.057Z,51.50
2022-09-06T07:48:29.999Z,52.39
2022-09-06T07:51:09.954Z,52.84
2022-09-06T07:53:33.482Z,53.14
2022-09-06T07:55:58.587Z,52.62
2022-09-06T07:58:21.504Z,53.55
2022-09-06T08:00:44.168Z,53.13
2022-09-06T08:03:07.100Z,53.80
2022-09-06T08:10:55.484Z,54.44
2022-09-06T08:13:18.133Z,54.78
2022-09-06T08:15:41.714Z,53.18
2022-09-06T08:18:04.697Z,53.02
2022-09-06T08:20:27.384Z,53.39
2022-09-06T08:22:50.178Z,53.44
2022-09-06T08:25:12.924Z,53.29
2022-09-06T08:27:35.522Z,52.86
2022-09-06T08:29:58.344Z,53.80
2022-09-06T08:32:20.965Z,53.08
2022-09-06T08:34:43.629Z,52.87
2022-09-06T08:37:06.237Z,52.76
2022-09-06T08:39:29.802Z,52.46
2022-09-06T08:42:01.118Z,52.20
2022-09-06T08:44:57.220Z,53.40
2022-09-06T08:47:21.613Z,53.39
2022-09-06T08:50:00.724Z,52.05
2022-09-06T08:53:21.362Z,52.18
2022-09-06T08:55:59.555Z,51.75
2022-09-06T08:58:55.938Z,52.04
2022-09-06T09:01:23.217Z,51.11
2022-09-06T09:03:47.206Z,51.47
2022-09-06T09:06:11.260Z,50.70
2022-09-06T09:08:48.087Z,50.80
2022-09-06T09:11:18.683Z,51.26
2022-09-06T09:13:46.833Z,51.33
2022-09-06T09:16:09.409Z,51.73
2022-09-06T09:18:36.670Z,51.95
2022-09-06T09:20:59.533Z,50.46
2022-09-06T09:23:22.182Z,51.09
2022-09-06T09:25:46.705Z,50.92
2022-09-06T09:28:22.608Z,50.82
2022-09-06T09:30:51.659Z,50.65
2022-09-06T09:33:28.238Z,50.17
2022-09-06T09:35:51.557Z,50.47
2022-09-06T09:38:22.849Z,51.02
2022-09-06T09:40:54.266Z,50.45
2022-09-06T09:43:26.918Z,51.02
2022-09-06T09:46:12.151Z,50.47
2022-09-06T09:48:35.307Z,50.16
2022-09-06T09:51:27.699Z,50.29
2022-09-06T09:53:56.530Z,50.34
2022-09-06T09:56:26.990Z,50.61
2022-09-06T09:58:49.809Z,49.12
2022-09-06T10:01:15.474Z,49.40
2022-09-06T10:09:31.406Z,50.42
2022-09-06T10:11:59.432Z,49.51
2022-09-06T10:14:27.084Z,49.99
2022-09-06T10:16:51.720Z,48.07
2022-09-06T10:19:35.657Z,49.14
2022-09-06T10:22:08.802Z,48.95
2022-09-06T10:25:02.890Z,49.66
2022-09-06T10:27:28.915Z,49.55
2022-09-06T10:29:58.537Z,48.87
2022-09-06T10:32:46.045Z,48.78
2022-09-06T10:35:36.189Z,48.51
2022-09-06T10:38:18.802Z,48.63
2022-09-06T10:40:44.396Z,48.46
2022-09-06T10:43:12.656Z,47.14
2022-09-06T10:45:50.280Z,46.29
2022-09-06T10:48:21.517Z,47.52
2022-09-06T10:50:56.371Z,47.67
2022-09-06T10:53:22.042Z,48.12
2022-09-06T10:55:49.350Z,48.68
2022-09-06T11:00:46.793Z,46.49
2022-09-06T11:06:08.764Z,47.16
2022-09-06T11:11:18.595Z,46.93
2022-09-06T11:13:41.177Z,47.61
2022-09-06T11:16:27.545Z,47.11
2022-09-06T11:18:53.264Z,46.20
2022-09-06T11:21:21.406Z,46.41
2022-09-06T11:23:48.510Z,45.85
2022-09-06T11:26:39.664Z,47.26
2022-09-06T11:29:10.520Z,45.86
2022-09-06T11:34:35.384Z,45.23
2022-09-06T11:37:03.941Z,44.88
2022-09-06T11:42:57.134Z,44.24
2022-09-06T11:45:58.585Z,43.34
2022-09-06T11:48:24.313Z,43.83
2022-09-06T11:50:53.581Z,44.41
2022-09-06T11:53:18.632Z,45.34
2022-09-06T11:55:46.272Z,45.06
2022-09-06T11:58:18.191Z,45.15
2022-09-06T12:00:41.288Z,43.98
2022-09-06T12:06:19.878Z,43.63
2022-09-06T12:08:43.743Z,42.92
2022-09-06T12:11:40.141Z,43.26
2022-09-06T12:14:33.003Z,44.23
2022-09-06T12:17:02.092Z,45.72
2022-09-06T12:20:06.807Z,45.28
2022-09-06T12:22:29.540Z,45.19
2022-09-06T12:24:59.738Z,45.19
2022-09-06T12:27:25.209Z,45.11
2022-09-06T12:29:59.546Z,44.56
2022-09-06T12:32:26.396Z,45.54
2022-09-06T12:37:48.897Z,44.65
2022-09-06T12:40:12.194Z,44.63
2022-09-06T12:42:37.924Z,43.46
2022-09-06T12:45:04.475Z,42.39
2022-09-06T12:47:32.808Z,43.23
2022-09-06T12:50:26.059Z,43.39
2022-09-06T12:52:52.643Z,43.10
2022-09-06T12:55:36.943Z,43.03
2022-09-06T12:58:08.881Z,44.21
2022-09-06T13:00:36.779Z,44.47
2022-09-06T13:03:09.301Z,44.99
2022-09-06T13:05:32.453Z,43.81
2022-09-06T13:07:59.288Z,43.75
2022-09-06T13:10:25.576Z,43.83
2022-09-06T13:12:50.649Z,45.02
2022-09-06T13:15:27.288Z,44.93
2022-09-06T13:17:50.597Z,43.60
2022-09-06T13:20:22.222Z,43.59
2022-09-06T13:23:13.088Z,43.89
2022-09-06T13:25:50.080Z,43.35
2022-09-06T13:28:24.415Z,43.30
2022-09-06T13:30:49.918Z,43.60
2022-09-06T13:33:40.183Z,43.85
2022-09-06T13:36:11.796Z,43.88
2022-09-06T13:38:39.923Z,44.28
2022-09-06T13:41:13.513Z,44.17
2022-09-06T13:43:47.694Z,43.78
2022-09-06T13:46:11.839Z,44.20
2022-09-06T13:48:36.018Z,43.75
2022-09-06T13:50:59.095Z,42.74
2022-09-06T13:53:21.768Z,43.64
2022-09-06T13:55:44.580Z,43.47
2022-09-06T13:58:07.204Z,43.68
2022-09-06T14:00:29.910Z,43.18
2022-09-06T14:02:55.529Z,44.58
2022-09-06T14:05:18.403Z,43.97
2022-09-06T14:07:41.034Z,44.14
2022-09-06T14:10:04.291Z,43.96
2022-09-06T14:12:27.689Z,43.60
2022-09-06T14:14:50.310Z,44.50
2022-09-06T14:17:12.918Z,44.76
2022-09-06T14:19:35.950Z,45.24
2022-09-06T14:21:58.617Z,44.96
2022-09-06T14:24:21.299Z,45.14
2022-09-06T14:26:43.984Z,44.61
2022-09-06T14:29:07.337Z,44.49
2022-09-06T14:31:32.572Z,44.96
2022-09-06T14:33:56.973Z,44.07
2022-09-06T14:36:22.148Z,44.03
2022-09-06T14:38:46.223Z,44.88
2022-09-06T14:41:10.087Z,44.10
2022-09-06T14:43:33.440Z,43.86
2022-09-06T14:45:58.923Z,44.35
2022-09-06T14:48:22.817Z,44.75
2022-09-06T14:50:45.468Z,43.96
2022-09-06T14:53:24.132Z,43.88
2022-09-06T14:55:50.800Z,43.59
2022-09-06T14:58:14.951Z,43.67
2022-09-06T15:00:37.672Z,43.74
2022-09-06T15:03:00.316Z,44.39
2022-09-06T15:05:22.988Z,44.01
2022-09-06T15:07:45.768Z,44.12
2022-09-06T15:10:08.708Z,44.82
2022-09-06T15:12:31.328Z,44.31
2022-09-06T15:14:54.021Z,49.72
2022-09-06T15:17:16.715Z,52.51
2022-09-06T15:19:39.751Z,54.08
2022-09-06T15:22:02.806Z,53.92
2022-09-06T15:24:26.142Z,64.59
2022-09-06T15:26:49.329Z,69.34
2022-09-06T15:29:14.196Z,72.06
2022-09-06T15:31:38.429Z,78.88
2022-09-06T15:34:02.820Z,78.93
2022-09-06T15:36:25.730Z,81.19
2022-09-06T15:38:50.385Z,81.41
2022-09-06T15:41:15.711Z,83.37
2022-09-06T15:43:45.259Z,84.81
2022-09-06T15:46:09.376Z,84.35
2022-09-06T15:48:43.367Z,83.25
2022-09-06T15:51:06.079Z,83.74
2022-09-06T15:53:28.882Z,82.96
2022-09-06T15:55:58.848Z,84.05
2022-09-06T15:58:22.571Z,83.62
2022-09-06T16:00:45.424Z,83.74
2022-09-06T16:03:07.995Z,83.74
2022-09-06T16:08:17.600Z,84.28
2022-09-06T16:10:40.051Z,83.79
2022-09-06T16:13:02.778Z,84.61
2022-09-06T16:15:25.388Z,84.38
2022-09-06T16:17:48.403Z,83.88
2022-09-06T16:20:10.959Z,82.91
2022-09-06T16:22:34.170Z,83.33
2022-09-06T16:24:56.868Z,83.99
2022-09-06T16:27:19.669Z,84.00
2022-09-06T16:29:42.407Z,83.27
2022-09-06T16:32:05.238Z,83.77
2022-09-06T16:34:28.038Z,83.60
2022-09-06T16:36:50.943Z,82.37
2022-09-06T16:39:13.647Z,84.05
2022-09-06T16:41:40.632Z,83.15
2022-09-06T16:44:03.510Z,82.19
2022-09-06T16:46:29.893Z,82.42
2022-09-06T16:48:54.337Z,81.80
2022-09-06T16:51:19.380Z,82.45
2022-09-06T16:53:44.298Z,82.13
2022-09-06T16:56:07.226Z,83.16
2022-09-06T16:58:30.292Z,81.04
2022-09-06T17:00:53.005Z,83.99
2022-09-06T17:03:15.620Z,84.65
2022-09-06T17:05:38.250Z,85.08
2022-09-06T17:08:00.988Z,85.70
2022-09-06T17:13:00.283Z,83.19
2022-09-06T17:15:22.860Z,82.51
2022-09-06T17:17:46.148Z,83.84
2022-09-06T17:20:09.880Z,83.35
2022-09-06T17:22:33.210Z,83.61
2022-09-06T17:24:55.879Z,84.90
2022-09-06T17:27:18.661Z,86.28
2022-09-06T17:29:41.390Z,85.88
2022-09-06T17:32:05.315Z,86.63
2022-09-06T17:34:27.928Z,87.35
2022-09-06T17:36:50.510Z,87.42
2022-09-06T17:39:33.990Z,86.44
2022-09-06T17:42:17.292Z,86.48
2022-09-06T17:44:39.840Z,88.50
2022-09-06T17:47:18.895Z,88.40
2022-09-06T17:49:42.559Z,90.03
2022-09-06T17:52:05.299Z,90.16
2022-09-06T17:54:28.410Z,86.51
2022-09-06T17:56:51.274Z,86.82
2022-09-06T17:59:15.605Z,86.38
2022-09-06T18:01:38.621Z,86.71
2022-09-06T18:04:01.255Z,86.47
2022-09-06T18:06:25.703Z,85.37
2022-09-06T18:08:51.235Z,85.70
2022-09-06T18:11:18.791Z,85.90
2022-09-06T18:13:43.009Z,86.13
2022-09-06T18:16:06.083Z,86.02
2022-09-06T18:18:29.738Z,86.39
2022-09-06T18:20:52.570Z,85.89
2022-09-06T18:23:15.376Z,84.92
2022-09-06T18:25:37.923Z,86.20
2022-09-06T18:28:00.866Z,85.44
2022-09-06T18:33:00.091Z,86.21
2022-09-06T18:35:22.772Z,83.74
2022-09-06T18:37:45.615Z,82.89
2022-09-06T18:40:09.607Z,83.38
2022-09-06T18:42:33.219Z,84.44
2022-09-06T18:44:56.832Z,82.90
2022-09-06T18:47:19.483Z,84.55
2022-09-06T18:49:44.245Z,84.89
2022-09-06T18:52:07.281Z,85.73
2022-09-06T18:54:30.603Z,86.09
2022-09-06T18:56:53.427Z,85.56
2022-09-06T18:59:17.278Z,85.73
2022-09-06T19:01:40.547Z,86.03
2022-09-06T19:04:04.475Z,86.09
2022-09-06T19:06:28.831Z,85.40
2022-09-06T19:08:53.840Z,85.50
2022-09-06T19:11:18.295Z,85.48
2022-09-06T19:13:41.929Z,86.11
2022-09-06T19:16:06.712Z,85.17
2022-09-06T19:18:29.605Z,84.88
2022-09-06T19:21:00.434Z,84.49
2022-09-06T19:23:23.229Z,85.13
2022-09-06T19:25:45.812Z,84.92
2022-09-06T19:28:08.508Z,85.20
2022-09-06T19:30:32.956Z,85.78
2022-09-06T19:32:55.651Z,84.39
2022-09-06T19:35:19.695Z,85.09
2022-09-06T19:37:42.427Z,84.94
2022-09-06T19:40:05.804Z,85.64
2022-09-06T19:42:29.073Z,85.66
2022-09-06T19:44:51.644Z,86.19
2022-09-06T19:47:14.247Z,86.12
2022-09-06T19:49:37.145Z,86.61
2022-09-06T19:51:59.880Z,85.68
2022-09-06T19:54:22.642Z,84.79
2022-09-06T19:56:46.277Z,85.58
2022-09-06T19:59:11.287Z,85.24
2022-09-06T20:01:35.852Z,85.50
2022-09-06T20:03:59.995Z,85.83
2022-09-06T20:06:23.002Z,86.40
2022-09-06T20:08:50.575Z,86.74
2022-09-06T20:11:13.310Z,87.12
2022-09-06T20:13:37.770Z,87.13
2022-09-06T20:16:03.201Z,87.66
2022-09-06T20:18:26.115Z,87.46
2022-09-06T20:20:55.851Z,87.82
2022-09-06T20:23:18.455Z,87.95
2022-09-06T20:25:41.356Z,87.79
2022-09-06T20:28:04.971Z,87.36
2022-09-06T20:30:27.811Z,87.64
2022-09-06T20:32:50.359Z,87.06
2022-09-06T20:35:12.917Z,85.68
2022-09-06T20:37:38.654Z,85.91
2022-09-06T20:40:01.391Z,85.33
2022-09-06T20:42:24.054Z,85.23
2022-09-06T20:44:46.915Z,85.25
2022-09-06T20:47:09.792Z,85.70
2022-09-06T20:49:32.523Z,85.46
2022-09-06T20:51:55.269Z,85.04
2022-09-06T20:54:17.963Z,84.68
2022-09-06T20:56:42.125Z,84.26
2022-09-06T20:59:08.626Z,84.19
2022-09-06T21:01:35.130Z,84.10
2022-09-06T21:03:59.759Z,84.35
2022-09-06T21:06:23.758Z,84.25
2022-09-06T21:08:47.236Z,84.64
2022-09-06T21:11:11.006Z,84.30
2022-09-06T21:13:34.694Z,84.91
2022-09-06T21:15:58.595Z,85.32
2022-09-06T21:18:23.047Z,85.05
2022-09-06T21:20:53.692Z,85.45
2022-09-06T21:23:16.349Z,85.13
2022-09-06T21:25:38.935Z,85.15
2022-09-06T21:28:01.727Z,84.61
2022-09-06T21:30:24.340Z,85.22
2022-09-06T21:32:46.974Z,84.87
2022-09-06T21:35:09.678Z,84.90
2022-09-06T21:37:32.509Z,84.57
2022-09-06T21:39:55.184Z,84.60
2022-09-06T21:42:18.623Z,85.17
2022-09-06T21:44:41.244Z,84.98
2022-09-06T21:47:04.253Z,84.84
2022-09-06T21:49:26.897Z,84.79
2022-09-06T21:51:49.539Z,84.60
2022-09-06T21:54:12.346Z,84.33
2022-09-06T21:56:37.263Z,84.62
2022-09-06T21:59:00.255Z,84.53
2022-09-06T22:01:24.484Z,84.73
2022-09-06T22:03:47.692Z,85.06
2022-09-06T22:06:36.720Z,84.39
2022-09-06T22:09:01.648Z,83.66
2022-09-06T22:11:27.012Z,83.85
2022-09-06T22:13:51.249Z,84.72
2022-09-06T22:16:15.833Z,83.54
2022-09-06T22:18:38.601Z,84.28
2022-09-06T22:21:06.786Z,85.15
2022-09-06T22:23:29.874Z,84.41
2022-09-06T22:26:08.594Z,85.61
2022-09-06T22:28:31.831Z,85.27
2022-09-06T22:30:54.621Z,84.98
2022-09-06T22:33:17.223Z,85.20
2022-09-06T22:35:39.819Z,85.33
2022-09-06T22:38:02.463Z,85.68
2022-09-06T22:40:25.026Z,84.84
2022-09-06T22:42:47.612Z,84.42
2022-09-06T22:45:10.294Z,84.40
2022-09-06T22:47:33.897Z,84.51
2022-09-06T22:49:56.445Z,84.79
2022-09-06T22:52:19.087Z,84.51
2022-09-06T22:54:41.664Z,84.70
2022-09-06T22:57:04.694Z,84.98
2022-09-06T22:59:27.308Z,84.48
2022-09-06T23:01:50.508Z,83.95
2022-09-06T23:04:13.194Z,85.13
2022-09-06T23:06:36.859Z,84.86
2022-09-06T23:08:59.542Z,84.53
2022-09-06T23:11:22.154Z,84.72
2022-09-06T23:13:46.108Z,84.81
2022-09-06T23:16:10.694Z,85.08
2022-09-06T23:18:33.902Z,84.10
2022-09-06T23:20:56.685Z,84.05
2022-09-06T23:23:19.211Z,83.82
2022-09-06T23:25:41.812Z,83.91
2022-09-06T23:28:05.116Z,83.52
2022-09-06T23:30:27.831Z,82.76
2022-09-06T23:32:50.376Z,82.85
2022-09-06T23:35:12.986Z,82.87
2022-09-06T23:37:35.604Z,82.69
2022-09-06T23:39:58.264Z,82.77
2022-09-06T23:42:23.046Z,83.28
2022-09-06T23:44:45.805Z,82.72
2022-09-06T23:47:08.454Z,82.67
2022-09-06T23:49:31.406Z,82.41
2022-09-06T23:51:53.997Z,82.29
2022-09-06T23:54:16.689Z,82.88
2022-09-06T23:56:39.213Z,82.99
2022-09-06T23:59:01.895Z,82.80
